createdAt,value
2022-09-15T00:03:58.378Z,12.3
2022-09-15T00:14:00.170Z,12.3
2022-09-15T00:24:02.744Z,12.3
2022-09-15T00:34:04.983Z,12.3
2022-09-15T00:44:07.635Z,12.1
2022-09-15T00:54:09.829Z,12
2022-09-15T01:04:12.081Z,11.6
2022-09-15T01:14:14.139Z,11.4
2022-09-15T01:24:15.855Z,11.2
2022-09-15T01:34:18.468Z,11
2022-09-15T01:44:20.404Z,11
2022-09-15T01:54:22.098Z,10.9
2022-09-15T02:04:24.195Z,11
2022-09-15T02:14:26.207Z,10.9
2022-09-15T02:24:28.140Z,11.2
2022-09-15T02:34:30.344Z,11.3
2022-09-15T02:44:32.935Z,11.4
2022-09-15T02:54:35.270Z,11.5
2022-09-15T03:04:37.614Z,11.7
2022-09-15T03:14:39.389Z,12.1
2022-09-15T03:24:41.737Z,12.3
2022-09-15T03:34:44.017Z,12.4
2022-09-15T03:44:46.349Z,12.4
2022-09-15T03:54:48.981Z,12.4
2022-09-15T04:04:50.670Z,12.3
2022-09-15T04:14:52.983Z,12.4
2022-09-15T04:24:55.063Z,12.4
2022-09-15T04:34:57.118Z,12.4
2022-09-15T04:44:59.077Z,12.4
2022-09-15T04:55:00.953Z,12.4
2022-09-15T05:05:02.827Z,12.5
2022-09-15T05:15:04.876Z,12.5
2022-09-15T05:25:06.490Z,12.6
2022-09-15T05:35:08.735Z,12.6
2022-09-15T05:45:10.883Z,12.7
2022-09-15T05:55:12.837Z,12.8
2022-09-15T06:05:14.636Z,12.9
2022-09-15T06:15:16.446Z,12.9
2022-09-15T06:25:18.476Z,13
2022-09-15T06:35:20.562Z,13.1
2022-09-15T06:45:22.357Z,13.2
2022-09-15T06:55:24.933Z,13.3
2022-09-15T07:05:27.544Z,13.4
2022-09-15T07:15:29.915Z,13.6
2022-09-15T07:25:31.695Z,13.8
2022-09-15T07:35:33.543Z,14
2022-09-15T07:45:35.645Z,14.2
2022-09-15T07:55:38.095Z,14.3
2022-09-15T08:05:44.862Z,14.3
2022-09-15T08:15:43.112Z,14.6
2022-09-15T08:25:45.661Z,14.7
2022-09-15T08:35:48.154Z,14.9
2022-09-15T08:45:50.615Z,15.1
2022-09-15T08:55:52.455Z,15.1
2022-09-15T09:05:54.556Z,15.4
2022-09-15T09:15:57.074Z,15.7
2022-09-15T09:25:59.499Z,15.8
2022-09-15T09:36:01.489Z,15.8
2022-09-15T09:46:03.582Z,15.7
2022-09-15T10:06:07.418Z,15.3
2022-09-15T10:16:09.820Z,13.6
2022-09-15T10:36:14.315Z,13.3
2022-09-15T10:46:16.099Z,13.6
2022-09-15T11:16:22.142Z,15.2
2022-09-15T11:26:24.658Z,15.3
2022-09-15T11:46:29.465Z,15.8
2022-09-15T11:56:31.879Z,15.6
2022-09-15T12:06:33.686Z,15.7
2022-09-15T12:16:35.659Z,15.6
2022-09-15T12:36:39.940Z,15.9
2022-09-15T12:46:42.669Z,16.2
2022-09-15T12:56:45.192Z,16.5
2022-09-15T13:26:52.067Z,17
2022-09-15T13:56:57.395Z,17.2
2022-09-15T15:37:19.365Z,15.5
2022-09-15T15:57:23.191Z,15.6
2022-09-15T16:27:29.761Z,15.7
2022-09-15T16:37:32.078Z,15.7
2022-09-15T16:47:34.459Z,15.5
2022-09-15T16:57:36.284Z,15.3
2022-09-15T17:07:38.743Z,15.2
2022-09-15T17:17:40.571Z,15.1
2022-09-15T17:27:42.839Z,15
2022-09-15T17:37:44.933Z,14.9
2022-09-15T17:47:47.369Z,14.8
2022-09-15T17:57:49.515Z,14.7
2022-09-15T18:07:51.336Z,14.7
2022-09-15T18:17:53.148Z,14.5
2022-09-15T18:37:56.861Z,13.9
2022-09-15T18:47:59.374Z,13.8
2022-09-15T18:58:01.844Z,13.8
2022-09-15T19:08:04.454Z,13.9
2022-09-15T19:18:06.556Z,13.8
2022-09-15T19:28:09.020Z,13.8
2022-09-15T19:38:10.719Z,14
2022-09-15T19:48:12.893Z,13.9
2022-09-15T19:58:15.091Z,13.8
2022-09-15T20:08:17.228Z,13.6
2022-09-15T20:18:19.763Z,13.4
2022-09-15T20:28:21.766Z,13.2
2022-09-15T20:48:26.190Z,12.9
2022-09-15T20:58:28.184Z,12.9
2022-09-15T21:08:30.115Z,13
2022-09-15T21:18:31.839Z,12.9
2022-09-15T21:28:33.703Z,12.8
2022-09-15T21:48:37.773Z,12.6
2022-09-15T21:58:42.818Z,12.6
2022-09-15T22:00:07.026Z,12.6
2022-09-15T22:08:49.972Z,12.6
2022-09-15T22:18:51.673Z,12.6
2022-09-15T22:38:56.017Z,12.5
2022-09-15T22:48:58.374Z,12.5
2022-09-15T22:59:01.018Z,12.4
2022-09-15T23:09:02.907Z,12.4
2022-09-15T23:19:04.972Z,12.4
2022-09-15T23:29:06.924Z,12.4
2022-09-15T23:39:09.361Z,12.3
2022-09-15T23:49:14.412Z,12.3
2022-09-15T23:59:13.655Z,12.3
